createdAt,value
2018-06-12T00:00:03.836Z,16.50
2018-06-12T00:02:32.988Z,16.40
2018-06-12T00:05:01.550Z,16.40
2018-06-12T00:07:29.977Z,16.50
2018-06-12T00:09:58.420Z,16.50
2018-06-12T00:12:27.277Z,16.40
2018-06-12T00:14:55.894Z,16.50
2018-06-12T00:17:24.386Z,16.50
2018-06-12T00:19:53.704Z,16.40
2018-06-12T00:22:22.112Z,16.40
2018-06-12T00:24:50.575Z,16.40
2018-06-12T00:27:19.066Z,16.30
2018-06-12T00:29:47.485Z,16.30
2018-06-12T00:32:15.925Z,16.20
2018-06-12T00:34:44.370Z,16.20
2018-06-12T00:37:12.913Z,16.20
2018-06-12T00:39:41.358Z,16.20
2018-06-12T00:44:37.886Z,16.20
2018-06-12T00:47:06.369Z,16.20
2018-06-12T00:49:34.806Z,16.20
2018-06-12T00:52:03.250Z,16.20
2018-06-12T00:54:31.705Z,16.20
2018-06-12T00:57:07.686Z,16.20
2018-06-12T00:59:36.207Z,16.20
2018-06-12T01:02:04.914Z,16.30
2018-06-12T01:04:33.409Z,16.30
2018-06-12T01:07:02.007Z,16.30
2018-06-12T01:09:30.524Z,16.20
2018-06-12T01:19:23.522Z,16.30
2018-06-12T01:21:51.986Z,16.30
2018-06-12T01:24:20.451Z,16.30
2018-06-12T01:26:48.908Z,16.30
2018-06-12T01:29:17.621Z,16.30
2018-06-12T01:31:46.067Z,16.40
2018-06-12T01:34:14.546Z,16.30
2018-06-12T01:36:43.016Z,16.30
2018-06-12T01:39:11.477Z,16.30
2018-06-12T01:41:39.956Z,16.30
2018-06-12T01:44:08.362Z,16.20
2018-06-12T01:46:36.876Z,16.20
2018-06-12T01:49:05.370Z,16.20
2018-06-12T01:51:33.818Z,16.30
2018-06-12T01:54:02.226Z,16.30
2018-06-12T01:56:30.709Z,16.30
2018-06-12T01:58:59.132Z,16.30
2018-06-12T02:01:27.620Z,16.30
2018-06-12T02:03:56.238Z,16.20
2018-06-12T02:06:24.641Z,16.30
2018-06-12T02:08:53.256Z,16.20
2018-06-12T02:11:21.720Z,16.20
2018-06-12T02:13:50.172Z,16.30
2018-06-12T02:16:18.694Z,16.30
2018-06-12T02:18:47.107Z,16.30
2018-06-12T02:21:15.564Z,16.30
2018-06-12T02:23:44.010Z,16.20
2018-06-12T02:26:12.462Z,16.30
2018-06-12T02:28:40.906Z,16.20
2018-06-12T02:31:09.398Z,16.20
2018-06-12T02:33:37.828Z,16.20
2018-06-12T02:36:06.324Z,16.20
2018-06-12T02:38:34.766Z,16.20
2018-06-12T02:41:03.229Z,16.30
2018-06-12T02:43:31.681Z,16.30
2018-06-12T02:46:00.118Z,16.20
2018-06-12T02:48:28.534Z,16.20
2018-06-12T02:50:56.977Z,16.20
2018-06-12T02:53:25.388Z,16.20
2018-06-12T02:55:53.797Z,16.30
2018-06-12T02:58:22.216Z,16.30
2018-06-12T03:00:50.757Z,16.20
2018-06-12T03:03:19.905Z,16.20
2018-06-12T03:05:48.427Z,16.30
2018-06-12T03:08:16.938Z,16.20
2018-06-12T03:10:45.377Z,16.20
2018-06-12T03:13:13.856Z,16.20
2018-06-12T03:15:42.285Z,16.20
2018-06-12T03:18:10.730Z,16.10
2018-06-12T03:20:46.601Z,16.10
2018-06-12T03:23:15.078Z,16.20
2018-06-12T03:25:43.509Z,16.10
2018-06-12T03:28:12.904Z,16.20
2018-06-12T03:30:41.388Z,16.20
2018-06-12T03:33:09.804Z,16.20
2018-06-12T03:35:38.293Z,16.20
2018-06-12T03:38:06.821Z,16.20
2018-06-12T03:40:35.249Z,16.20
2018-06-12T03:43:03.925Z,16.20
2018-06-12T03:45:32.371Z,16.20
2018-06-12T03:48:00.804Z,16.30
2018-06-12T03:50:29.273Z,16.30
2018-06-12T03:52:57.750Z,16.30
2018-06-12T03:55:26.256Z,16.30
2018-06-12T03:57:54.685Z,16.30
2018-06-12T04:00:23.165Z,16.20
2018-06-12T04:02:51.700Z,16.20
2018-06-12T04:05:20.113Z,16.20
2018-06-12T04:07:48.577Z,16.20
2018-06-12T04:10:17.029Z,16.20
2018-06-12T04:12:45.520Z,16.30
2018-06-12T04:15:14.009Z,16.30
2018-06-12T04:17:42.487Z,16.30
2018-06-12T04:20:10.979Z,16.30
2018-06-12T04:22:39.409Z,16.30
2018-06-12T04:25:07.868Z,16.30
2018-06-12T04:27:36.308Z,16.30
2018-06-12T04:30:04.797Z,16.40
2018-06-12T04:32:33.243Z,16.40
2018-06-12T04:35:01.685Z,16.40
2018-06-12T04:37:30.169Z,16.40
2018-06-12T04:39:58.671Z,16.50
2018-06-12T04:42:27.148Z,16.50
2018-06-12T04:44:55.657Z,16.60
2018-06-12T04:47:24.716Z,16.60
2018-06-12T04:49:53.215Z,16.70
2018-06-12T04:52:21.657Z,16.70
2018-06-12T04:54:50.131Z,16.80
2018-06-12T04:57:19.157Z,16.80
2018-06-12T04:59:47.602Z,16.90
2018-06-12T05:02:16.120Z,16.90
2018-06-12T05:07:12.735Z,16.90
2018-06-12T05:09:41.185Z,17.00
2018-06-12T05:12:09.658Z,17.10
2018-06-12T05:14:38.096Z,17.00
2018-06-12T05:17:06.653Z,17.10
2018-06-12T05:19:35.276Z,17.10
2018-06-12T05:22:04.307Z,17.10
2018-06-12T05:24:33.077Z,17.00
2018-06-12T05:27:01.717Z,17.10
2018-06-12T05:29:34.614Z,17.00
2018-06-12T05:32:03.318Z,17.10
2018-06-12T05:34:31.770Z,17.10
2018-06-12T05:37:00.342Z,17.10
2018-06-12T05:39:29.736Z,17.20
2018-06-12T05:41:58.313Z,17.20
2018-06-12T05:44:26.815Z,17.20
2018-06-12T05:46:55.312Z,17.30
2018-06-12T05:49:23.776Z,17.40
2018-06-12T05:51:52.362Z,17.40
2018-06-12T05:54:20.805Z,17.50
2018-06-12T05:56:49.357Z,17.50
2018-06-12T05:59:17.876Z,17.60
2018-06-12T06:01:46.295Z,17.80
2018-06-12T06:04:14.769Z,18.10
2018-06-12T06:06:43.314Z,18.10
2018-06-12T06:09:11.845Z,18.10
2018-06-12T06:11:40.947Z,18.30
2018-06-12T06:14:09.472Z,18.50
2018-06-12T06:16:38.016Z,18.60
2018-06-12T06:19:06.466Z,19.00
2018-06-12T06:21:35.006Z,19.00
2018-06-12T06:24:03.477Z,19.30
2018-06-12T06:26:31.941Z,19.50
2018-06-12T06:29:00.384Z,19.60
2018-06-12T06:31:28.824Z,19.70
2018-06-12T06:33:57.269Z,19.70
2018-06-12T06:36:25.753Z,19.90
2018-06-12T06:38:54.205Z,20.10
2018-06-12T06:41:22.692Z,20.10
2018-06-12T06:43:51.125Z,20.00
2018-06-12T06:46:19.640Z,19.90
2018-06-12T06:48:48.041Z,19.70
2018-06-12T06:51:16.522Z,19.70
2018-06-12T06:53:45.020Z,19.60
2018-06-12T06:56:13.465Z,19.50
2018-06-12T06:58:41.923Z,19.30
2018-06-12T07:01:10.342Z,19.40
2018-06-12T07:03:39.453Z,19.40
2018-06-12T07:06:08.057Z,19.40
2018-06-12T07:08:36.505Z,19.30
2018-06-12T07:11:05.713Z,19.20
2018-06-12T07:13:34.320Z,19.00
2018-06-12T07:16:02.800Z,19.20
2018-06-12T07:18:31.265Z,19.00
2018-06-12T07:21:08.633Z,18.90
2018-06-12T07:23:37.086Z,18.80
2018-06-12T07:26:05.505Z,18.70
2018-06-12T07:28:33.952Z,18.70
2018-06-12T07:31:02.454Z,18.70
2018-06-12T07:33:30.889Z,18.80
2018-06-12T07:35:59.805Z,18.80
2018-06-12T07:38:28.346Z,18.90
2018-06-12T07:40:56.796Z,18.90
2018-06-12T07:43:25.326Z,18.90
2018-06-12T07:45:53.875Z,19.00
2018-06-12T07:48:22.338Z,19.00
2018-06-12T07:50:51.488Z,19.10
2018-06-12T07:53:19.994Z,19.30
2018-06-12T07:55:48.524Z,19.20
2018-06-12T07:58:16.956Z,19.30
2018-06-12T08:00:46.061Z,19.50
2018-06-12T08:03:14.518Z,19.40
2018-06-12T08:05:43.020Z,19.40
2018-06-12T08:08:11.457Z,19.40
2018-06-12T08:10:40.038Z,19.50
2018-06-12T08:13:08.610Z,19.60
2018-06-12T08:18:05.217Z,19.90
2018-06-12T08:20:33.750Z,20.10
2018-06-12T08:23:02.243Z,20.30
2018-06-12T08:25:30.741Z,20.20
2018-06-12T08:27:59.232Z,20.40
2018-06-12T08:30:27.714Z,20.60
2018-06-12T08:32:56.078Z,20.70
2018-06-12T08:35:24.572Z,20.80
2018-06-12T08:37:53.085Z,20.80
2018-06-12T08:40:21.562Z,20.90
2018-06-12T08:42:50.088Z,21.60
2018-06-12T08:45:18.568Z,22.00
2018-06-12T08:47:47.013Z,22.00
2018-06-12T08:50:15.521Z,22.20
2018-06-12T08:52:43.987Z,21.90
2018-06-12T08:55:12.449Z,21.70
2018-06-12T08:57:40.895Z,21.20
2018-06-12T09:00:09.550Z,21.00
2018-06-12T09:02:38.076Z,20.70
2018-06-12T09:05:06.819Z,20.60
2018-06-12T09:07:35.275Z,20.40
2018-06-12T09:10:03.866Z,20.40
2018-06-12T09:15:00.693Z,20.50
2018-06-12T09:17:29.296Z,20.50
2018-06-12T09:22:26.016Z,20.40
2018-06-12T09:24:54.629Z,20.30
2018-06-12T09:27:23.256Z,20.20
2018-06-12T09:29:51.885Z,20.20
2018-06-12T09:32:20.411Z,20.30
2018-06-12T09:34:48.863Z,20.30
2018-06-12T09:37:17.476Z,20.60
2018-06-12T09:39:45.893Z,20.80
2018-06-12T09:42:14.380Z,20.90
2018-06-12T09:44:42.807Z,21.10
2018-06-12T09:47:11.277Z,21.20
2018-06-12T09:49:39.746Z,21.20
2018-06-12T09:52:08.205Z,21.30
2018-06-12T09:54:36.654Z,21.20
2018-06-12T09:57:05.417Z,21.20
2018-06-12T09:59:33.851Z,21.10
2018-06-12T10:02:02.348Z,21.00
2018-06-12T10:04:30.865Z,20.80
2018-06-12T10:06:59.401Z,21.00
2018-06-12T10:09:27.947Z,21.00
2018-06-12T10:11:56.452Z,20.90
2018-06-12T10:14:24.897Z,20.90
2018-06-12T10:16:53.429Z,21.00
2018-06-12T10:19:21.904Z,21.00
2018-06-12T10:21:50.434Z,20.80
2018-06-12T10:24:18.926Z,20.80
2018-06-12T10:26:47.414Z,20.80
2018-06-12T10:29:15.942Z,20.80
2018-06-12T10:31:44.448Z,20.80
2018-06-12T10:34:12.973Z,20.80
2018-06-12T10:36:41.453Z,20.90
2018-06-12T10:39:09.997Z,20.90
2018-06-12T10:41:38.489Z,20.80
2018-06-12T10:44:07.036Z,20.80
2018-06-12T10:46:36.199Z,20.90
2018-06-12T10:49:04.805Z,21.00
2018-06-12T10:51:33.366Z,21.10
2018-06-12T10:54:01.804Z,21.20
2018-06-12T10:56:30.300Z,21.20
2018-06-12T10:58:58.727Z,21.00
2018-06-12T11:01:27.261Z,21.10
2018-06-12T11:03:56.361Z,21.20
2018-06-12T11:06:24.850Z,21.30
2018-06-12T11:08:53.302Z,21.50
2018-06-12T11:11:21.805Z,21.40
2018-06-12T11:13:50.262Z,21.70
2018-06-12T11:16:18.721Z,21.80
2018-06-12T11:18:47.261Z,22.00
2018-06-12T11:21:16.057Z,22.30
2018-06-12T11:23:44.529Z,22.50
2018-06-12T11:26:12.988Z,22.60
2018-06-12T11:28:41.526Z,22.60
2018-06-12T11:31:10.034Z,22.90
2018-06-12T11:33:38.628Z,23.10
2018-06-12T11:36:07.186Z,23.20
2018-06-12T11:38:35.719Z,23.50
2018-06-12T11:41:05.001Z,23.90
2018-06-12T11:43:33.569Z,24.10
2018-06-12T11:46:02.090Z,24.30
2018-06-12T11:48:30.665Z,24.60
2018-06-12T11:50:59.147Z,24.50
2018-06-12T11:53:27.637Z,24.30
2018-06-12T11:55:56.057Z,23.90
2018-06-12T11:58:24.539Z,23.70
2018-06-12T12:00:53.057Z,23.60
2018-06-12T12:03:21.597Z,23.70
2018-06-12T12:05:50.121Z,24.00
2018-06-12T12:08:18.606Z,24.20
2018-06-12T12:10:47.610Z,24.60
2018-06-12T12:13:16.132Z,24.60
2018-06-12T12:15:44.690Z,24.60
2018-06-12T12:18:13.185Z,24.40
2018-06-12T12:20:41.652Z,24.30
2018-06-12T12:23:10.148Z,24.20
2018-06-12T12:28:06.773Z,23.60
2018-06-12T12:30:35.291Z,23.60
2018-06-12T12:33:03.760Z,23.40
2018-06-12T12:35:32.238Z,23.40
2018-06-12T12:40:29.036Z,23.40
2018-06-12T12:42:57.474Z,23.50
2018-06-12T12:45:26.053Z,23.60
2018-06-12T12:47:54.485Z,23.70
2018-06-12T12:50:23.053Z,24.00
2018-06-12T12:52:51.540Z,24.70
2018-06-12T12:55:20.020Z,25.60
2018-06-12T12:57:48.482Z,25.70
2018-06-12T13:00:17.589Z,26.20
2018-06-12T13:02:46.245Z,26.00
2018-06-12T13:05:14.665Z,26.50
2018-06-12T13:07:43.227Z,26.80
2018-06-12T13:10:11.705Z,26.40
2018-06-12T13:15:08.496Z,25.40
2018-06-12T13:17:37.047Z,24.90
2018-06-12T13:20:05.588Z,24.40
2018-06-12T13:22:34.062Z,24.20
2018-06-12T13:25:02.542Z,24.00
2018-06-12T13:27:30.971Z,24.00
2018-06-12T13:29:59.534Z,23.70
2018-06-12T13:32:27.975Z,23.40
2018-06-12T13:34:56.594Z,23.30
2018-06-12T13:37:25.205Z,23.20
2018-06-12T13:42:21.926Z,22.90
2018-06-12T13:44:50.518Z,22.90
2018-06-12T13:47:20.007Z,23.10
2018-06-12T13:49:48.850Z,23.10
2018-06-12T13:52:17.301Z,23.00
2018-06-12T13:54:45.829Z,23.10
2018-06-12T13:57:14.478Z,23.00
2018-06-12T13:59:42.994Z,22.90
2018-06-12T14:02:11.506Z,22.70
2018-06-12T14:04:40.504Z,22.70
2018-06-12T14:07:09.069Z,22.30
2018-06-12T14:09:37.581Z,22.00
2018-06-12T14:12:06.790Z,22.00
2018-06-12T14:14:35.256Z,21.90
2018-06-12T14:17:03.788Z,21.70
2018-06-12T14:19:32.277Z,21.80
2018-06-12T14:24:28.901Z,21.60
2018-06-12T14:26:57.518Z,21.60
2018-06-12T14:29:25.928Z,21.60
2018-06-12T14:31:54.516Z,21.70
2018-06-12T14:34:23.002Z,21.70
2018-06-12T14:36:51.866Z,21.50
2018-06-12T14:39:20.409Z,21.50
2018-06-12T14:41:48.869Z,21.30
2018-06-12T14:44:17.442Z,21.30
2018-06-12T14:46:46.378Z,21.10
2018-06-12T14:49:14.805Z,21.30
2018-06-12T14:51:43.306Z,21.20
2018-06-12T14:54:11.897Z,21.00
2018-06-12T14:56:41.424Z,21.00
2018-06-12T14:59:10.017Z,20.90
2018-06-12T15:01:38.470Z,20.80
2018-06-12T15:04:06.935Z,20.80
2018-06-12T15:06:35.400Z,20.70
2018-06-12T15:09:04.080Z,20.60
2018-06-12T15:11:32.536Z,20.60
2018-06-12T15:14:01.000Z,20.60
2018-06-12T15:16:29.501Z,20.60
2018-06-12T15:18:57.989Z,20.50
2018-06-12T15:21:26.450Z,20.40
2018-06-12T15:23:54.961Z,20.60
2018-06-12T15:26:23.516Z,20.60
2018-06-12T15:28:52.007Z,20.40
2018-06-12T15:31:20.565Z,20.50
2018-06-12T15:33:49.211Z,20.50
2018-06-12T15:36:17.745Z,20.70
2018-06-12T15:38:46.421Z,20.40
2018-06-12T15:41:14.937Z,20.50
2018-06-12T15:43:43.684Z,20.50
2018-06-12T15:46:13.508Z,20.50
2018-06-12T15:48:42.317Z,20.40
2018-06-12T15:51:10.816Z,20.30
2018-06-12T15:53:39.337Z,20.20
2018-06-12T15:56:08.610Z,20.20
2018-06-12T15:58:37.266Z,20.10
2018-06-12T16:01:06.053Z,20.10
2018-06-12T16:03:35.700Z,20.10
2018-06-12T16:06:04.406Z,20.10
2018-06-12T16:08:32.985Z,19.90
2018-06-12T16:11:01.681Z,19.80
2018-06-12T16:13:30.460Z,19.80
2018-06-12T16:15:59.335Z,19.70
2018-06-12T16:18:27.852Z,19.70
2018-06-12T16:20:57.108Z,19.60
2018-06-12T16:23:25.589Z,19.60
2018-06-12T16:28:22.288Z,19.40
2018-06-12T16:30:50.846Z,19.40
2018-06-12T16:33:20.072Z,19.40
2018-06-12T16:35:48.538Z,19.40
2018-06-12T16:38:18.304Z,19.30
2018-06-12T16:40:47.335Z,19.20
2018-06-12T16:43:16.325Z,19.20
2018-06-12T16:45:44.845Z,19.10
2018-06-12T16:48:13.733Z,19.10
2018-06-12T16:50:42.872Z,19.10
2018-06-12T16:56:43.283Z,19.10
2018-06-12T16:59:11.957Z,19.00
2018-06-12T17:01:41.209Z,18.90
2018-06-12T17:04:10.404Z,19.00
2018-06-12T17:06:39.909Z,18.90
2018-06-12T17:09:09.129Z,18.90
2018-06-12T17:11:37.569Z,18.90
2018-06-12T17:14:06.417Z,18.90
2018-06-12T17:16:35.138Z,18.90
2018-06-12T17:19:04.150Z,19.00
2018-06-12T17:21:32.661Z,19.00
2018-06-12T17:24:01.193Z,18.90
2018-06-12T17:26:30.850Z,19.00
2018-06-12T17:28:59.803Z,18.90
2018-06-12T17:31:29.186Z,18.90
2018-06-12T17:33:58.321Z,18.90
2018-06-12T17:36:26.880Z,19.00
2018-06-12T17:38:55.342Z,19.00
2018-06-12T17:41:23.948Z,19.10
2018-06-12T17:43:52.674Z,19.00
2018-06-12T17:46:21.363Z,18.90
2018-06-12T17:48:49.881Z,18.90
2018-06-12T17:51:18.673Z,18.90
2018-06-12T17:53:47.325Z,18.80
2018-06-12T17:56:16.446Z,18.70
2018-06-12T17:58:44.970Z,18.70
2018-06-12T18:01:14.336Z,18.70
2018-06-12T18:03:43.157Z,18.70
2018-06-12T18:06:11.885Z,18.70
2018-06-12T18:11:08.599Z,18.80
2018-06-12T18:13:43.093Z,18.80
2018-06-12T18:16:13.219Z,18.70
2018-06-12T18:18:41.841Z,18.70
2018-06-12T18:21:10.747Z,18.70
2018-06-12T18:23:40.562Z,18.70
2018-06-12T18:26:10.158Z,18.70
2018-06-12T18:28:38.757Z,18.70
2018-06-12T18:31:07.206Z,18.60
2018-06-12T18:33:35.774Z,18.60
2018-06-12T18:36:04.296Z,18.50
2018-06-12T18:38:32.891Z,18.60
2018-06-12T18:41:01.361Z,18.50
2018-06-12T18:43:30.547Z,18.50
2018-06-12T18:45:59.043Z,18.50
2018-06-12T18:48:27.605Z,18.50
2018-06-12T18:50:57.422Z,18.40
2018-06-12T18:53:26.025Z,18.40
2018-06-12T18:55:54.547Z,18.30
2018-06-12T18:58:25.222Z,18.30
2018-06-12T19:00:54.396Z,18.30
2018-06-12T19:03:23.014Z,18.20
2018-06-12T19:05:51.864Z,18.20
2018-06-12T19:08:21.375Z,18.20
2018-06-12T19:10:50.040Z,18.10
2018-06-12T19:13:19.339Z,18.10
2018-06-12T19:15:48.278Z,18.10
2018-06-12T19:18:16.899Z,18.10
2018-06-12T19:20:45.430Z,18.00
2018-06-12T19:23:14.889Z,18.00
2018-06-12T19:25:43.448Z,17.90
2018-06-12T19:28:11.988Z,17.70
2018-06-12T19:30:40.647Z,17.60
2018-06-12T19:33:09.254Z,17.50
2018-06-12T19:35:37.819Z,17.20
2018-06-12T19:38:06.228Z,17.20
2018-06-12T19:40:34.759Z,17.20
2018-06-12T19:45:31.514Z,17.10
2018-06-12T19:48:00.167Z,17.10
2018-06-12T19:50:28.764Z,17.10
2018-06-12T19:52:57.494Z,17.00
2018-06-12T19:55:26.228Z,17.10
2018-06-12T19:57:54.833Z,17.10
2018-06-12T20:00:24.552Z,17.10
2018-06-12T20:02:52.983Z,17.10
2018-06-12T20:05:21.377Z,17.10
2018-06-12T20:07:50.615Z,17.00
2018-06-12T20:10:20.398Z,17.00
2018-06-12T20:12:48.951Z,17.00
2018-06-12T20:15:17.737Z,16.90
2018-06-12T20:17:46.233Z,16.90
2018-06-12T20:20:14.734Z,16.80
2018-06-12T20:22:43.354Z,16.80
2018-06-12T20:25:11.800Z,16.80
2018-06-12T20:27:40.278Z,16.80
2018-06-12T20:30:08.849Z,16.80
2018-06-12T20:32:37.342Z,16.80
2018-06-12T20:35:05.880Z,16.80
2018-06-12T20:37:34.468Z,16.80
2018-06-12T20:40:03.154Z,16.80
2018-06-12T20:42:31.574Z,16.80
2018-06-12T20:45:00.208Z,16.80
2018-06-12T20:47:28.650Z,16.70
2018-06-12T20:49:57.116Z,16.70
2018-06-12T20:52:26.238Z,16.70
2018-06-12T20:54:55.324Z,16.70
2018-06-12T20:57:23.805Z,16.70
2018-06-12T20:59:52.298Z,16.70
2018-06-12T21:02:20.766Z,16.70
2018-06-12T21:04:49.277Z,16.60
2018-06-12T21:07:19.064Z,16.60
2018-06-12T21:09:47.485Z,16.60
2018-06-12T21:12:16.021Z,16.50
2018-06-12T21:14:44.549Z,16.60
2018-06-12T21:17:13.064Z,16.50
2018-06-12T21:19:41.564Z,16.50
2018-06-12T21:22:10.774Z,16.40
2018-06-12T21:24:39.269Z,16.40
2018-06-12T21:27:08.377Z,16.40
2018-06-12T21:29:36.921Z,16.40
2018-06-12T21:32:05.649Z,16.40
2018-06-12T21:34:34.176Z,16.40
2018-06-12T21:37:02.645Z,16.30
2018-06-12T21:39:31.648Z,16.30
2018-06-12T21:42:00.381Z,16.30
2018-06-12T21:44:28.847Z,16.30
2018-06-12T21:46:58.261Z,16.30
2018-06-12T21:49:26.704Z,16.20
2018-06-12T21:51:55.239Z,16.20
2018-06-12T21:54:23.643Z,16.10
2018-06-12T21:56:52.950Z,16.10
2018-06-12T21:59:21.969Z,16.10
2018-06-12T22:01:50.486Z,16.10
2018-06-12T22:04:18.938Z,16.10
2018-06-12T22:06:47.453Z,16.10
2018-06-12T22:09:15.945Z,16.00
2018-06-12T22:11:44.438Z,16.00
2018-06-12T22:14:12.896Z,16.00
2018-06-12T22:16:41.386Z,16.00
2018-06-12T22:19:10.434Z,15.90
2018-06-12T22:21:38.901Z,15.90
2018-06-12T22:26:35.481Z,15.90
2018-06-12T22:29:04.021Z,16.00
2018-06-12T22:31:32.446Z,15.90
2018-06-12T22:34:00.964Z,15.90
2018-06-12T22:36:29.409Z,15.80
2018-06-12T22:38:57.844Z,15.80
2018-06-12T22:41:26.282Z,15.80
2018-06-12T22:43:54.969Z,15.70
2018-06-12T22:46:23.436Z,15.70
2018-06-12T22:48:52.068Z,15.70
2018-06-12T22:51:20.552Z,15.60
2018-06-12T22:53:49.014Z,15.60
2018-06-12T22:56:17.502Z,15.70
2018-06-12T22:58:46.904Z,15.60
2018-06-12T23:01:15.397Z,15.50
2018-06-12T23:03:43.816Z,15.50
2018-06-12T23:06:12.320Z,15.40
2018-06-12T23:08:40.817Z,15.40
2018-06-12T23:11:09.284Z,15.30
2018-06-12T23:13:37.717Z,15.30
2018-06-12T23:16:06.193Z,15.20
2018-06-12T23:18:34.658Z,15.10
2018-06-12T23:21:18.123Z,15.20
2018-06-12T23:23:46.570Z,15.10
2018-06-12T23:26:16.023Z,15.10
2018-06-12T23:28:44.454Z,15.10
2018-06-12T23:31:12.926Z,15.00
2018-06-12T23:33:41.344Z,15.00
2018-06-12T23:36:09.802Z,15.00
2018-06-12T23:38:38.248Z,15.00
2018-06-12T23:41:06.720Z,15.00
2018-06-12T23:43:35.133Z,14.90
2018-06-12T23:46:03.577Z,14.90
2018-06-12T23:48:32.066Z,14.80
2018-06-12T23:51:00.554Z,14.90
2018-06-12T23:53:29.024Z,14.90
2018-06-12T23:55:57.441Z,14.90
2018-06-12T23:58:25.965Z,14.90
